sensor_id;sensor_type;location;lat;lon;timestamp;P1;durP1;ratioP1;P2;durP2;ratioP2
72974;SDS011;61166;54.228;37.632;2022-09-30T00:01:27;30.73;;;9.80;;
72974;SDS011;61166;54.228;37.632;2022-09-30T00:03:54;34.60;;;10.90;;
72974;SDS011;61166;54.228;37.632;2022-09-30T00:06:22;32.17;;;11.60;;
72974;SDS011;61166;54.228;37.632;2022-09-30T00:08:49;37.10;;;12.17;;
72974;SDS011;61166;54.228;37.632;2022-09-30T00:11:19;26.27;;;10.23;;
72974;SDS011;61166;54.228;37.632;2022-09-30T00:13:47;29.02;;;10.20;;
72974;SDS011;61166;54.228;37.632;2022-09-30T00:16:14;25.00;;;9.93;;
72974;SDS011;61166;54.228;37.632;2022-09-30T00:18:42;28.60;;;9.40;;
72974;SDS011;61166;54.228;37.632;2022-09-30T00:21:08;30.55;;;10.38;;
72974;SDS011;61166;54.228;37.632;2022-09-30T00:23:35;26.67;;;9.95;;
72974;SDS011;61166;54.228;37.632;2022-09-30T00:26:03;23.75;;;8.18;;
72974;SDS011;61166;54.228;37.632;2022-09-30T00:28:30;27.37;;;9.37;;
72974;SDS011;61166;54.228;37.632;2022-09-30T00:31:00;22.38;;;8.77;;
72974;SDS011;61166;54.228;37.632;2022-09-30T00:33:27;24.73;;;9.40;;
72974;SDS011;61166;54.228;37.632;2022-09-30T00:35:53;29.92;;;11.13;;
72974;SDS011;61166;54.228;37.632;2022-09-30T00:38:18;25.65;;;9.88;;
72974;SDS011;61166;54.228;37.632;2022-09-30T00:40:43;26.70;;;8.37;;
72974;SDS011;61166;54.228;37.632;2022-09-30T00:43:12;20.40;;;8.37;;
72974;SDS011;61166;54.228;37.632;2022-09-30T00:45:41;20.08;;;8.80;;
72974;SDS011;61166;54.228;37.632;2022-09-30T00:48:26;29.52;;;10.23;;
72974;SDS011;61166;54.228;37.632;2022-09-30T00:50:57;23.70;;;9.43;;
72974;SDS011;61166;54.228;37.632;2022-09-30T00:55:57;28.63;;;9.50;;
72974;SDS011;61166;54.228;37.632;2022-09-30T01:01:04;26.52;;;9.75;;
72974;SDS011;61166;54.228;37.632;2022-09-30T01:03:30;23.57;;;7.57;;
72974;SDS011;61166;54.228;37.632;2022-09-30T01:05:57;18.88;;;6.90;;
72974;SDS011;61166;54.228;37.632;2022-09-30T01:08:23;19.90;;;8.13;;
72974;SDS011;61166;54.228;37.632;2022-09-30T01:10:51;20.42;;;8.50;;
72974;SDS011;61166;54.228;37.632;2022-09-30T01:13:16;13.27;;;6.77;;
72974;SDS011;61166;54.228;37.632;2022-09-30T01:15:57;21.75;;;8.32;;
72974;SDS011;61166;54.228;37.632;2022-09-30T01:32:48;21.02;;;8.20;;
72974;SDS011;61166;54.228;37.632;2022-09-30T01:35:32;23.70;;;8.80;;
72974;SDS011;61166;54.228;37.632;2022-09-30T01:38:23;24.48;;;8.60;;
72974;SDS011;61166;54.228;37.632;2022-09-30T01:41:01;17.27;;;7.20;;
72974;SDS011;61166;54.228;37.632;2022-09-30T01:43:45;21.88;;;8.25;;
72974;SDS011;61166;54.228;37.632;2022-09-30T01:46:22;20.17;;;8.30;;
72974;SDS011;61166;54.228;37.632;2022-09-30T01:55:08;25.20;;;9.93;;
72974;SDS011;61166;54.228;37.632;2022-09-30T01:57:40;27.50;;;10.05;;
72974;SDS011;61166;54.228;37.632;2022-09-30T02:00:09;25.77;;;10.80;;
72974;SDS011;61166;54.228;37.632;2022-09-30T02:02:42;26.35;;;9.40;;
72974;SDS011;61166;54.228;37.632;2022-09-30T02:05:19;26.27;;;9.75;;
72974;SDS011;61166;54.228;37.632;2022-09-30T02:07:48;24.43;;;9.07;;
72974;SDS011;61166;54.228;37.632;2022-09-30T02:10:29;24.08;;;9.75;;
72974;SDS011;61166;54.228;37.632;2022-09-30T02:13:19;20.05;;;8.15;;
72974;SDS011;61166;54.228;37.632;2022-09-30T02:15:53;21.45;;;7.95;;
72974;SDS011;61166;54.228;37.632;2022-09-30T02:18:28;19.23;;;7.63;;
72974;SDS011;61166;54.228;37.632;2022-09-30T02:21:01;21.83;;;7.77;;
72974;SDS011;61166;54.228;37.632;2022-09-30T02:23:30;23.45;;;8.35;;
72974;SDS011;61166;54.228;37.632;2022-09-30T02:28:44;30.00;;;9.60;;
72974;SDS011;61166;54.228;37.632;2022-09-30T02:31:15;25.95;;;9.68;;
72974;SDS011;61166;54.228;37.632;2022-09-30T02:33:45;26.90;;;9.93;;
72974;SDS011;61166;54.228;37.632;2022-09-30T02:38:44;25.52;;;9.50;;
72974;SDS011;61166;54.228;37.632;2022-09-30T02:41:56;25.77;;;8.95;;
72974;SDS011;61166;54.228;37.632;2022-09-30T02:44:09;28.65;;;10.27;;
72974;SDS011;61166;54.228;37.632;2022-09-30T02:51:54;22.85;;;8.48;;
72974;SDS011;61166;54.228;37.632;2022-09-30T02:59:53;24.33;;;10.18;;
72974;SDS011;61166;54.228;37.632;2022-09-30T03:02:19;23.63;;;11.20;;
72974;SDS011;61166;54.228;37.632;2022-09-30T03:04:45;21.80;;;9.30;;
72974;SDS011;61166;54.228;37.632;2022-09-30T03:07:16;21.90;;;9.25;;
72974;SDS011;61166;54.228;37.632;2022-09-30T03:09:42;19.50;;;7.93;;
72974;SDS011;61166;54.228;37.632;2022-09-30T03:15:04;20.77;;;7.82;;
72974;SDS011;61166;54.228;37.632;2022-09-30T03:22:51;21.35;;;8.23;;
72974;SDS011;61166;54.228;37.632;2022-09-30T03:31:25;21.58;;;7.65;;
72974;SDS011;61166;54.228;37.632;2022-09-30T03:33:48;19.55;;;7.82;;
72974;SDS011;61166;54.228;37.632;2022-09-30T03:39:24;20.17;;;8.45;;
72974;SDS011;61166;54.228;37.632;2022-09-30T03:47:24;20.58;;;7.70;;
72974;SDS011;61166;54.228;37.632;2022-09-30T03:49:52;21.52;;;8.70;;
72974;SDS011;61166;54.228;37.632;2022-09-30T03:52:21;17.63;;;8.48;;
72974;SDS011;61166;54.228;37.632;2022-09-30T03:54:51;18.92;;;8.55;;
72974;SDS011;61166;54.228;37.632;2022-09-30T03:57:19;17.80;;;7.45;;
72974;SDS011;61166;54.228;37.632;2022-09-30T03:59:45;16.58;;;8.48;;
72974;SDS011;61166;54.228;37.632;2022-09-30T04:02:10;15.07;;;7.87;;
72974;SDS011;61166;54.228;37.632;2022-09-30T04:04:40;18.42;;;8.35;;
72974;SDS011;61166;54.228;37.632;2022-09-30T04:07:07;17.77;;;7.82;;
72974;SDS011;61166;54.228;37.632;2022-09-30T04:09:37;15.45;;;8.10;;
72974;SDS011;61166;54.228;37.632;2022-09-30T04:12:03;14.87;;;7.17;;
72974;SDS011;61166;54.228;37.632;2022-09-30T04:14:28;16.17;;;5.82;;
72974;SDS011;61166;54.228;37.632;2022-09-30T04:16:54;16.63;;;8.10;;
72974;SDS011;61166;54.228;37.632;2022-09-30T04:19:19;13.17;;;6.03;;
72974;SDS011;61166;54.228;37.632;2022-09-30T04:21:45;10.73;;;5.27;;
72974;SDS011;61166;54.228;37.632;2022-09-30T04:24:11;14.85;;;6.03;;
72974;SDS011;61166;54.228;37.632;2022-09-30T04:26:36;14.50;;;6.90;;
72974;SDS011;61166;54.228;37.632;2022-09-30T04:29:01;18.17;;;7.77;;
72974;SDS011;61166;54.228;37.632;2022-09-30T04:31:27;12.70;;;7.23;;
72974;SDS011;61166;54.228;37.632;2022-09-30T04:33:52;19.10;;;9.63;;
72974;SDS011;61166;54.228;37.632;2022-09-30T04:36:17;21.43;;;10.93;;
72974;SDS011;61166;54.228;37.632;2022-09-30T04:38:43;18.40;;;8.63;;
72974;SDS011;61166;54.228;37.632;2022-09-30T04:41:10;15.57;;;6.47;;
72974;SDS011;61166;54.228;37.632;2022-09-30T04:43:40;19.80;;;8.65;;
72974;SDS011;61166;54.228;37.632;2022-09-30T04:46:09;17.33;;;8.47;;
72974;SDS011;61166;54.228;37.632;2022-09-30T04:48:34;19.02;;;7.82;;
72974;SDS011;61166;54.228;37.632;2022-09-30T04:51:00;21.97;;;7.77;;
72974;SDS011;61166;54.228;37.632;2022-09-30T04:53:25;12.63;;;7.50;;
72974;SDS011;61166;54.228;37.632;2022-09-30T04:55:56;17.95;;;9.85;;
72974;SDS011;61166;54.228;37.632;2022-09-30T04:58:22;19.00;;;8.50;;
72974;SDS011;61166;54.228;37.632;2022-09-30T05:00:48;17.45;;;8.23;;
72974;SDS011;61166;54.228;37.632;2022-09-30T05:03:14;17.60;;;8.17;;
72974;SDS011;61166;54.228;37.632;2022-09-30T05:05:42;20.53;;;10.67;;
72974;SDS011;61166;54.228;37.632;2022-09-30T05:08:08;23.45;;;9.05;;
72974;SDS011;61166;54.228;37.632;2022-09-30T05:10:33;22.10;;;8.57;;
72974;SDS011;61166;54.228;37.632;2022-09-30T05:12:59;20.80;;;9.30;;
72974;SDS011;61166;54.228;37.632;2022-09-30T05:15:24;26.40;;;9.43;;
72974;SDS011;61166;54.228;37.632;2022-09-30T05:17:50;19.70;;;9.07;;
72974;SDS011;61166;54.228;37.632;2022-09-30T05:20:17;23.08;;;7.88;;
72974;SDS011;61166;54.228;37.632;2022-09-30T05:22:43;19.48;;;9.07;;
72974;SDS011;61166;54.228;37.632;2022-09-30T05:25:08;22.10;;;10.13;;
72974;SDS011;61166;54.228;37.632;2022-09-30T05:27:34;15.97;;;7.63;;
72974;SDS011;61166;54.228;37.632;2022-09-30T05:30:00;18.88;;;9.27;;
72974;SDS011;61166;54.228;37.632;2022-09-30T05:32:25;13.75;;;7.38;;
72974;SDS011;61166;54.228;37.632;2022-09-30T05:34:51;13.70;;;7.53;;
72974;SDS011;61166;54.228;37.632;2022-09-30T05:37:19;19.70;;;8.13;;
72974;SDS011;61166;54.228;37.632;2022-09-30T05:39:44;20.90;;;8.63;;
72974;SDS011;61166;54.228;37.632;2022-09-30T05:42:10;24.03;;;9.83;;
72974;SDS011;61166;54.228;37.632;2022-09-30T05:44:35;19.75;;;9.65;;
72974;SDS011;61166;54.228;37.632;2022-09-30T05:47:01;21.47;;;10.17;;
72974;SDS011;61166;54.228;37.632;2022-09-30T05:49:26;22.37;;;10.37;;
72974;SDS011;61166;54.228;37.632;2022-09-30T05:51:52;24.03;;;10.70;;
72974;SDS011;61166;54.228;37.632;2022-09-30T05:54:17;19.37;;;9.07;;
72974;SDS011;61166;54.228;37.632;2022-09-30T05:56:43;25.77;;;11.43;;
72974;SDS011;61166;54.228;37.632;2022-09-30T05:59:08;20.83;;;11.00;;
72974;SDS011;61166;54.228;37.632;2022-09-30T06:01:34;26.70;;;11.90;;
72974;SDS011;61166;54.228;37.632;2022-09-30T06:04:00;22.70;;;9.13;;
72974;SDS011;61166;54.228;37.632;2022-09-30T06:06:25;33.97;;;12.35;;
72974;SDS011;61166;54.228;37.632;2022-09-30T06:08:51;24.63;;;13.13;;
72974;SDS011;61166;54.228;37.632;2022-09-30T06:11:17;23.83;;;10.63;;
72974;SDS011;61166;54.228;37.632;2022-09-30T06:13:45;24.40;;;11.65;;
72974;SDS011;61166;54.228;37.632;2022-09-30T06:16:11;26.38;;;12.10;;
72974;SDS011;61166;54.228;37.632;2022-09-30T06:18:39;29.40;;;13.20;;
72974;SDS011;61166;54.228;37.632;2022-09-30T06:21:06;28.80;;;12.17;;
72974;SDS011;61166;54.228;37.632;2022-09-30T06:23:35;22.85;;;11.07;;
72974;SDS011;61166;54.228;37.632;2022-09-30T06:26:01;32.10;;;13.80;;
72974;SDS011;61166;54.228;37.632;2022-09-30T06:28:29;29.55;;;13.57;;
72974;SDS011;61166;54.228;37.632;2022-09-30T06:30:54;22.43;;;11.27;;
72974;SDS011;61166;54.228;37.632;2022-09-30T06:33:20;29.50;;;12.95;;
72974;SDS011;61166;54.228;37.632;2022-09-30T06:35:46;20.37;;;10.03;;
72974;SDS011;61166;54.228;37.632;2022-09-30T06:38:12;32.28;;;12.70;;
72974;SDS011;61166;54.228;37.632;2022-09-30T06:40:41;25.25;;;11.52;;
72974;SDS011;61166;54.228;37.632;2022-09-30T06:43:07;32.08;;;13.13;;
72974;SDS011;61166;54.228;37.632;2022-09-30T06:45:34;34.25;;;15.15;;
72974;SDS011;61166;54.228;37.632;2022-09-30T06:48:01;40.90;;;14.63;;
72974;SDS011;61166;54.228;37.632;2022-09-30T06:50:28;32.55;;;15.88;;
72974;SDS011;61166;54.228;37.632;2022-09-30T06:52:58;26.30;;;12.00;;
72974;SDS011;61166;54.228;37.632;2022-09-30T06:55:25;29.88;;;14.10;;
72974;SDS011;61166;54.228;37.632;2022-09-30T06:57:52;32.95;;;15.60;;
72974;SDS011;61166;54.228;37.632;2022-09-30T07:00:17;35.73;;;15.57;;
72974;SDS011;61166;54.228;37.632;2022-09-30T07:02:43;28.40;;;13.98;;
72974;SDS011;61166;54.228;37.632;2022-09-30T07:05:09;35.63;;;15.03;;
72974;SDS011;61166;54.228;37.632;2022-09-30T07:07:34;31.63;;;15.80;;
72974;SDS011;61166;54.228;37.632;2022-09-30T07:10:01;35.65;;;16.83;;
72974;SDS011;61166;54.228;37.632;2022-09-30T07:12:28;37.78;;;17.38;;
72974;SDS011;61166;54.228;37.632;2022-09-30T07:14:53;38.87;;;16.27;;
72974;SDS011;61166;54.228;37.632;2022-09-30T07:17:20;29.13;;;14.02;;
72974;SDS011;61166;54.228;37.632;2022-09-30T07:19:46;35.88;;;16.65;;
72974;SDS011;61166;54.228;37.632;2022-09-30T07:22:11;34.23;;;15.43;;
72974;SDS011;61166;54.228;37.632;2022-09-30T07:24:54;34.55;;;15.98;;
72974;SDS011;61166;54.228;37.632;2022-09-30T07:27:20;44.37;;;19.07;;
72974;SDS011;61166;54.228;37.632;2022-09-30T07:29:46;39.55;;;19.50;;
72974;SDS011;61166;54.228;37.632;2022-09-30T07:32:11;32.83;;;16.27;;
72974;SDS011;61166;54.228;37.632;2022-09-30T07:34:38;35.60;;;16.58;;
72974;SDS011;61166;54.228;37.632;2022-09-30T07:37:08;36.63;;;18.57;;
72974;SDS011;61166;54.228;37.632;2022-09-30T07:39:36;27.17;;;12.27;;
72974;SDS011;61166;54.228;37.632;2022-09-30T07:42:02;35.80;;;16.50;;
72974;SDS011;61166;54.228;37.632;2022-09-30T07:44:29;25.60;;;12.68;;
72974;SDS011;61166;54.228;37.632;2022-09-30T07:46:56;33.58;;;17.17;;
72974;SDS011;61166;54.228;37.632;2022-09-30T07:49:22;35.27;;;17.90;;
72974;SDS011;61166;54.228;37.632;2022-09-30T07:51:49;34.20;;;16.67;;
72974;SDS011;61166;54.228;37.632;2022-09-30T07:54:20;24.95;;;12.27;;
72974;SDS011;61166;54.228;37.632;2022-09-30T07:56:48;31.80;;;16.50;;
72974;SDS011;61166;54.228;37.632;2022-09-30T07:59:15;30.02;;;14.93;;
72974;SDS011;61166;54.228;37.632;2022-09-30T08:01:40;30.63;;;14.97;;
72974;SDS011;61166;54.228;37.632;2022-09-30T08:04:07;30.50;;;15.20;;
72974;SDS011;61166;54.228;37.632;2022-09-30T08:06:38;32.60;;;15.57;;
72974;SDS011;61166;54.228;37.632;2022-09-30T08:09:06;31.50;;;15.40;;
72974;SDS011;61166;54.228;37.632;2022-09-30T08:11:32;31.10;;;15.35;;
72974;SDS011;61166;54.228;37.632;2022-09-30T08:13:58;35.08;;;17.73;;
72974;SDS011;61166;54.228;37.632;2022-09-30T08:16:24;36.23;;;17.23;;
72974;SDS011;61166;54.228;37.632;2022-09-30T08:18:56;37.97;;;17.88;;
72974;SDS011;61166;54.228;37.632;2022-09-30T08:21:26;37.10;;;18.75;;
72974;SDS011;61166;54.228;37.632;2022-09-30T08:23:52;36.63;;;18.33;;
72974;SDS011;61166;54.228;37.632;2022-09-30T08:26:18;30.70;;;13.80;;
72974;SDS011;61166;54.228;37.632;2022-09-30T08:28:44;35.38;;;17.17;;
72974;SDS011;61166;54.228;37.632;2022-09-30T08:31:17;30.83;;;14.57;;
72974;SDS011;61166;54.228;37.632;2022-09-30T08:33:44;27.08;;;13.60;;
72974;SDS011;61166;54.228;37.632;2022-09-30T08:36:11;34.15;;;15.88;;
72974;SDS011;61166;54.228;37.632;2022-09-30T08:38:41;25.85;;;13.57;;
72974;SDS011;61166;54.228;37.632;2022-09-30T08:49:38;23.63;;;10.50;;
72974;SDS011;61166;54.228;37.632;2022-09-30T08:52:12;35.40;;;16.27;;
72974;SDS011;61166;54.228;37.632;2022-09-30T08:54:42;31.20;;;16.10;;
72974;SDS011;61166;54.228;37.632;2022-09-30T08:57:12;32.63;;;15.93;;
72974;SDS011;61166;54.228;37.632;2022-09-30T09:00:00;25.57;;;11.97;;
72974;SDS011;61166;54.228;37.632;2022-09-30T09:05:19;42.22;;;19.15;;
72974;SDS011;61166;54.228;37.632;2022-09-30T09:23:48;42.05;;;20.52;;
72974;SDS011;61166;54.228;37.632;2022-09-30T09:26:15;34.80;;;16.48;;
72974;SDS011;61166;54.228;37.632;2022-09-30T09:31:13;38.65;;;17.80;;
72974;SDS011;61166;54.228;37.632;2022-09-30T09:33:41;47.95;;;21.77;;
72974;SDS011;61166;54.228;37.632;2022-09-30T09:46:58;38.42;;;17.38;;
72974;SDS011;61166;54.228;37.632;2022-09-30T09:52:00;44.67;;;20.05;;
72974;SDS011;61166;54.228;37.632;2022-09-30T09:54:43;32.47;;;15.57;;
72974;SDS011;61166;54.228;37.632;2022-09-30T09:57:11;47.95;;;21.30;;
72974;SDS011;61166;54.228;37.632;2022-09-30T09:59:55;48.60;;;21.05;;
72974;SDS011;61166;54.228;37.632;2022-09-30T10:02:57;47.17;;;21.05;;
72974;SDS011;61166;54.228;37.632;2022-09-30T10:05:28;45.55;;;22.05;;
72974;SDS011;61166;54.228;37.632;2022-09-30T10:10:49;34.25;;;14.98;;
72974;SDS011;61166;54.228;37.632;2022-09-30T10:15:50;33.30;;;15.32;;
72974;SDS011;61166;54.228;37.632;2022-09-30T10:18:19;41.03;;;18.70;;
72974;SDS011;61166;54.228;37.632;2022-09-30T10:20:52;28.83;;;13.40;;
72974;SDS011;61166;54.228;37.632;2022-09-30T10:23:38;41.40;;;19.00;;
72974;SDS011;61166;54.228;37.632;2022-09-30T10:28:52;42.83;;;20.00;;
72974;SDS011;61166;54.228;37.632;2022-09-30T10:33:55;41.20;;;18.10;;
72974;SDS011;61166;54.228;37.632;2022-09-30T10:36:32;38.53;;;18.48;;
72974;SDS011;61166;54.228;37.632;2022-09-30T10:39:04;38.72;;;17.70;;
72974;SDS011;61166;54.228;37.632;2022-09-30T10:41:33;30.67;;;14.52;;
72974;SDS011;61166;54.228;37.632;2022-09-30T10:44:00;36.88;;;17.63;;
72974;SDS011;61166;54.228;37.632;2022-09-30T10:46:30;35.47;;;15.77;;
72974;SDS011;61166;54.228;37.632;2022-09-30T10:49:09;40.92;;;18.13;;
72974;SDS011;61166;54.228;37.632;2022-09-30T10:51:46;36.05;;;15.23;;
72974;SDS011;61166;54.228;37.632;2022-09-30T10:54:31;40.93;;;17.83;;
72974;SDS011;61166;54.228;37.632;2022-09-30T10:56:56;46.90;;;19.73;;
72974;SDS011;61166;54.228;37.632;2022-09-30T10:59:31;41.72;;;17.40;;
72974;SDS011;61166;54.228;37.632;2022-09-30T11:05:12;38.77;;;16.50;;
72974;SDS011;61166;54.228;37.632;2022-09-30T11:07:50;37.67;;;15.27;;
72974;SDS011;61166;54.228;37.632;2022-09-30T11:15:55;42.83;;;18.25;;
72974;SDS011;61166;54.228;37.632;2022-09-30T11:18:29;35.83;;;15.40;;
72974;SDS011;61166;54.228;37.632;2022-09-30T11:23:46;35.72;;;15.38;;
72974;SDS011;61166;54.228;37.632;2022-09-30T11:26:26;33.55;;;14.95;;
72974;SDS011;61166;54.228;37.632;2022-09-30T11:29:19;30.70;;;13.95;;
72974;SDS011;61166;54.228;37.632;2022-09-30T11:37:57;33.45;;;14.77;;
72974;SDS011;61166;54.228;37.632;2022-09-30T11:42:55;28.23;;;13.23;;
72974;SDS011;61166;54.228;37.632;2022-09-30T11:45:33;28.90;;;14.75;;
72974;SDS011;61166;54.228;37.632;2022-09-30T11:48:09;30.35;;;14.38;;
72974;SDS011;61166;54.228;37.632;2022-09-30T11:53:32;23.08;;;12.05;;
72974;SDS011;61166;54.228;37.632;2022-09-30T11:58:44;21.77;;;11.38;;
72974;SDS011;61166;54.228;37.632;2022-09-30T12:01:17;22.33;;;11.57;;
72974;SDS011;61166;54.228;37.632;2022-09-30T12:06:37;22.70;;;12.13;;
72974;SDS011;61166;54.228;37.632;2022-09-30T12:11:57;22.70;;;10.95;;
72974;SDS011;61166;54.228;37.632;2022-09-30T12:17:10;21.03;;;11.97;;
72974;SDS011;61166;54.228;37.632;2022-09-30T12:19:44;18.90;;;9.77;;
72974;SDS011;61166;54.228;37.632;2022-09-30T12:22:15;19.85;;;10.95;;
72974;SDS011;61166;54.228;37.632;2022-09-30T12:24:44;19.30;;;10.65;;
72974;SDS011;61166;54.228;37.632;2022-09-30T12:27:16;17.95;;;10.38;;
72974;SDS011;61166;54.228;37.632;2022-09-30T12:29:49;17.30;;;10.17;;
72974;SDS011;61166;54.228;37.632;2022-09-30T12:49:05;13.13;;;7.40;;
72974;SDS011;61166;54.228;37.632;2022-09-30T12:51:42;11.35;;;6.40;;
72974;SDS011;61166;54.228;37.632;2022-09-30T12:54:17;17.60;;;9.38;;
72974;SDS011;61166;54.228;37.632;2022-09-30T12:56:46;9.10;;;5.50;;
72974;SDS011;61166;54.228;37.632;2022-09-30T12:59:19;18.88;;;10.23;;
72974;SDS011;61166;54.228;37.632;2022-09-30T13:01:50;16.90;;;9.73;;
72974;SDS011;61166;54.228;37.632;2022-09-30T13:04:17;18.55;;;9.65;;
72974;SDS011;61166;54.228;37.632;2022-09-30T13:09:22;18.97;;;10.80;;
72974;SDS011;61166;54.228;37.632;2022-09-30T13:14:30;21.07;;;12.83;;
72974;SDS011;61166;54.228;37.632;2022-09-30T13:17:01;20.25;;;11.73;;
72974;SDS011;61166;54.228;37.632;2022-09-30T13:19:34;21.42;;;12.57;;
72974;SDS011;61166;54.228;37.632;2022-09-30T13:25:02;19.05;;;10.98;;
72974;SDS011;61166;54.228;37.632;2022-09-30T13:27:32;17.23;;;10.50;;
72974;SDS011;61166;54.228;37.632;2022-09-30T13:32:37;21.08;;;12.43;;
72974;SDS011;61166;54.228;37.632;2022-09-30T13:40:46;22.57;;;11.63;;
72974;SDS011;61166;54.228;37.632;2022-09-30T13:43:16;23.58;;;10.82;;
72974;SDS011;61166;54.228;37.632;2022-09-30T13:45:46;21.08;;;11.50;;
72974;SDS011;61166;54.228;37.632;2022-09-30T13:48:15;20.45;;;11.23;;
72974;SDS011;61166;54.228;37.632;2022-09-30T13:50:48;24.83;;;13.30;;
72974;SDS011;61166;54.228;37.632;2022-09-30T13:55:52;25.40;;;12.88;;
72974;SDS011;61166;54.228;37.632;2022-09-30T14:01:27;23.42;;;13.63;;
72974;SDS011;61166;54.228;37.632;2022-09-30T14:10:17;22.95;;;13.93;;
72974;SDS011;61166;54.228;37.632;2022-09-30T14:23:58;25.38;;;14.10;;
72974;SDS011;61166;54.228;37.632;2022-09-30T14:26:43;24.67;;;12.65;;
72974;SDS011;61166;54.228;37.632;2022-09-30T14:35:07;19.87;;;11.43;;
72974;SDS011;61166;54.228;37.632;2022-09-30T14:37:39;20.55;;;10.23;;
72974;SDS011;61166;54.228;37.632;2022-09-30T14:40:14;29.80;;;13.13;;
72974;SDS011;61166;54.228;37.632;2022-09-30T14:42:42;21.13;;;10.65;;
72974;SDS011;61166;54.228;37.632;2022-09-30T14:45:12;22.23;;;11.73;;
72974;SDS011;61166;54.228;37.632;2022-09-30T14:47:43;22.53;;;12.50;;
72974;SDS011;61166;54.228;37.632;2022-09-30T14:50:19;22.95;;;12.30;;
72974;SDS011;61166;54.228;37.632;2022-09-30T14:52:50;24.15;;;13.60;;
72974;SDS011;61166;54.228;37.632;2022-09-30T14:57:51;23.42;;;12.07;;
72974;SDS011;61166;54.228;37.632;2022-09-30T15:00:39;22.40;;;11.77;;
72974;SDS011;61166;54.228;37.632;2022-09-30T15:03:09;24.48;;;11.68;;
72974;SDS011;61166;54.228;37.632;2022-09-30T15:05:36;26.73;;;13.18;;
72974;SDS011;61166;54.228;37.632;2022-09-30T15:08:02;23.90;;;13.00;;
72974;SDS011;61166;54.228;37.632;2022-09-30T15:10:33;20.03;;;11.57;;
72974;SDS011;61166;54.228;37.632;2022-09-30T15:12:59;21.48;;;12.15;;
72974;SDS011;61166;54.228;37.632;2022-09-30T15:15:27;21.08;;;11.60;;
72974;SDS011;61166;54.228;37.632;2022-09-30T15:17:59;20.00;;;10.30;;
72974;SDS011;61166;54.228;37.632;2022-09-30T15:22:52;20.50;;;10.20;;
72974;SDS011;61166;54.228;37.632;2022-09-30T15:25:18;19.10;;;10.32;;
72974;SDS011;61166;54.228;37.632;2022-09-30T15:27:45;19.85;;;10.88;;
72974;SDS011;61166;54.228;37.632;2022-09-30T15:32:40;18.27;;;9.13;;
72974;SDS011;61166;54.228;37.632;2022-09-30T15:35:07;18.55;;;10.73;;
72974;SDS011;61166;54.228;37.632;2022-09-30T15:37:38;20.85;;;9.77;;
72974;SDS011;61166;54.228;37.632;2022-09-30T15:40:11;17.97;;;9.93;;
72974;SDS011;61166;54.228;37.632;2022-09-30T15:42:57;19.90;;;11.60;;
72974;SDS011;61166;54.228;37.632;2022-09-30T15:48:03;24.45;;;11.57;;
72974;SDS011;61166;54.228;37.632;2022-09-30T15:50:46;36.67;;;10.83;;
72974;SDS011;61166;54.228;37.632;2022-09-30T15:53:18;17.10;;;10.40;;
72974;SDS011;61166;54.228;37.632;2022-09-30T15:55:52;17.35;;;8.48;;
72974;SDS011;61166;54.228;37.632;2022-09-30T15:58:29;21.15;;;8.43;;
72974;SDS011;61166;54.228;37.632;2022-09-30T16:03:53;20.63;;;10.00;;
72974;SDS011;61166;54.228;37.632;2022-09-30T16:11:43;21.33;;;11.38;;
72974;SDS011;61166;54.228;37.632;2022-09-30T16:14:17;26.95;;;12.25;;
72974;SDS011;61166;54.228;37.632;2022-09-30T16:16:50;18.15;;;9.45;;
72974;SDS011;61166;54.228;37.632;2022-09-30T16:19:19;18.67;;;8.38;;
72974;SDS011;61166;54.228;37.632;2022-09-30T16:21:48;22.07;;;11.17;;
72974;SDS011;61166;54.228;37.632;2022-09-30T16:26:47;24.88;;;12.88;;
72974;SDS011;61166;54.228;37.632;2022-09-30T16:29:16;27.35;;;13.75;;
72974;SDS011;61166;54.228;37.632;2022-09-30T16:31:42;26.65;;;13.73;;
72974;SDS011;61166;54.228;37.632;2022-09-30T16:34:15;25.47;;;12.80;;
72974;SDS011;61166;54.228;37.632;2022-09-30T16:36:47;25.73;;;12.73;;
72974;SDS011;61166;54.228;37.632;2022-09-30T16:39:13;26.33;;;13.37;;
72974;SDS011;61166;54.228;37.632;2022-09-30T16:41:40;20.08;;;9.95;;
72974;SDS011;61166;54.228;37.632;2022-09-30T16:44:06;27.27;;;13.40;;
72974;SDS011;61166;54.228;37.632;2022-09-30T16:46:33;25.40;;;12.55;;
72974;SDS011;61166;54.228;37.632;2022-09-30T16:48:58;25.87;;;13.30;;
72974;SDS011;61166;54.228;37.632;2022-09-30T16:51:24;29.13;;;13.35;;
72974;SDS011;61166;54.228;37.632;2022-09-30T16:53:51;29.67;;;13.82;;
72974;SDS011;61166;54.228;37.632;2022-09-30T16:56:17;23.87;;;11.00;;
72974;SDS011;61166;54.228;37.632;2022-09-30T16:58:44;16.38;;;8.02;;
72974;SDS011;61166;54.228;37.632;2022-09-30T17:01:20;19.52;;;9.52;;
72974;SDS011;61166;54.228;37.632;2022-09-30T17:03:47;19.33;;;9.38;;
72974;SDS011;61166;54.228;37.632;2022-09-30T17:06:14;18.60;;;9.83;;
72974;SDS011;61166;54.228;37.632;2022-09-30T17:08:41;15.52;;;8.20;;
72974;SDS011;61166;54.228;37.632;2022-09-30T17:11:06;19.25;;;9.55;;
72974;SDS011;61166;54.228;37.632;2022-09-30T17:13:32;22.90;;;10.43;;
72974;SDS011;61166;54.228;37.632;2022-09-30T17:15:57;21.03;;;9.47;;
72974;SDS011;61166;54.228;37.632;2022-09-30T17:18:23;19.67;;;10.35;;
72974;SDS011;61166;54.228;37.632;2022-09-30T17:20:48;19.90;;;10.23;;
72974;SDS011;61166;54.228;37.632;2022-09-30T17:23:21;20.05;;;10.27;;
72974;SDS011;61166;54.228;37.632;2022-09-30T17:25:48;21.13;;;10.53;;
72974;SDS011;61166;54.228;37.632;2022-09-30T17:28:14;18.13;;;10.07;;
72974;SDS011;61166;54.228;37.632;2022-09-30T17:30:40;19.40;;;11.05;;
72974;SDS011;61166;54.228;37.632;2022-09-30T17:33:08;23.75;;;10.35;;
72974;SDS011;61166;54.228;37.632;2022-09-30T17:35:34;20.33;;;10.70;;
72974;SDS011;61166;54.228;37.632;2022-09-30T17:38:05;22.75;;;10.15;;
72974;SDS011;61166;54.228;37.632;2022-09-30T17:40:32;25.50;;;11.82;;
72974;SDS011;61166;54.228;37.632;2022-09-30T17:43:16;21.25;;;10.93;;
72974;SDS011;61166;54.228;37.632;2022-09-30T17:45:42;26.63;;;12.93;;
72974;SDS011;61166;54.228;37.632;2022-09-30T17:48:10;23.58;;;11.70;;
72974;SDS011;61166;54.228;37.632;2022-09-30T17:50:37;28.60;;;15.02;;
72974;SDS011;61166;54.228;37.632;2022-09-30T17:53:04;27.63;;;14.37;;
72974;SDS011;61166;54.228;37.632;2022-09-30T17:55:31;29.00;;;12.85;;
72974;SDS011;61166;54.228;37.632;2022-09-30T17:57:58;29.98;;;14.02;;
72974;SDS011;61166;54.228;37.632;2022-09-30T18:00:25;32.90;;;13.85;;
72974;SDS011;61166;54.228;37.632;2022-09-30T18:02:52;31.30;;;14.23;;
72974;SDS011;61166;54.228;37.632;2022-09-30T18:05:18;35.97;;;15.33;;
72974;SDS011;61166;54.228;37.632;2022-09-30T18:07:44;27.23;;;12.80;;
72974;SDS011;61166;54.228;37.632;2022-09-30T18:10:10;28.65;;;13.68;;
72974;SDS011;61166;54.228;37.632;2022-09-30T18:12:36;26.33;;;12.90;;
72974;SDS011;61166;54.228;37.632;2022-09-30T18:15:01;32.50;;;14.40;;
72974;SDS011;61166;54.228;37.632;2022-09-30T18:17:27;28.50;;;13.37;;
72974;SDS011;61166;54.228;37.632;2022-09-30T18:19:52;29.90;;;12.80;;
72974;SDS011;61166;54.228;37.632;2022-09-30T18:22:18;34.00;;;14.25;;